Terminal Aerodrome Forecast
Issued by NWS

Home | Current Version | Previous Version | Text Only | Print | Product List | Glossary On
Versions: 1 2 3 4 5 6 7 8 9 10 11 12 13 14
000
FTUS45 KRIW 070528
TAFJAC
TAF
KJAC 070528Z 0706/0806 VRB05KT P6SM SCT100
     FM071000 VRB05KT P6SM VCFG FEW020 BKN150
     FM071600 VRB06KT P6SM SCT070 SCT120
     FM072000 VRB10G15KT P6SM VCTS SCT060CB BKN100
     FM080200 VRB06KT P6SM VCSH BKN060
      AMD LTD TO CLD VIS AND WIND=

USA.gov is the U.S. government's official web portal to all federal, state and local government web resources and services.